createdAt,value
2022-10-19T00:01:31.210Z,63.63
2022-10-19T00:03:58.748Z,63.60
2022-10-19T00:06:28.251Z,63.44
2022-10-19T00:08:57.039Z,62.89
2022-10-19T00:11:24.134Z,62.90
2022-10-19T00:13:51.191Z,63.24
2022-10-19T00:16:18.466Z,63.38
2022-10-19T00:18:46.092Z,63.13
2022-10-19T00:21:15.862Z,63.17
2022-10-19T00:23:42.672Z,63.29
2022-10-19T00:26:09.637Z,63.69
2022-10-19T00:28:36.375Z,63.54
2022-10-19T00:31:08.762Z,63.84
2022-10-19T00:33:35.613Z,64.17
2022-10-19T00:36:02.717Z,64.17
2022-10-19T00:38:29.076Z,64.01
2022-10-19T00:40:55.730Z,64.16
2022-10-19T00:43:28.853Z,63.93
2022-10-19T00:45:55.213Z,64.14
2022-10-19T00:48:27.944Z,63.92
2022-10-19T00:50:58.300Z,63.75
2022-10-19T00:53:27.349Z,64.14
2022-10-19T00:55:54.312Z,64.50
2022-10-19T00:58:20.789Z,64.32
2022-10-19T01:00:47.286Z,64.02
2022-10-19T01:03:14.380Z,63.69
2022-10-19T01:05:41.179Z,63.88
2022-10-19T01:08:09.940Z,63.97
2022-10-19T01:11:03.415Z,63.99
2022-10-19T01:13:55.982Z,63.82
2022-10-19T01:16:37.994Z,63.74
2022-10-19T01:19:42.026Z,63.84
2022-10-19T01:22:36.467Z,64.13
2022-10-19T01:25:20.744Z,63.84
2022-10-19T01:28:04.319Z,64.09
2022-10-19T01:30:46.983Z,63.58
2022-10-19T01:33:28.326Z,63.70
2022-10-19T01:36:13.169Z,64.02
2022-10-19T01:39:01.452Z,63.95
2022-10-19T01:41:35.374Z,64.14
2022-10-19T01:44:13.766Z,63.41
2022-10-19T01:46:43.916Z,63.66
2022-10-19T01:49:16.162Z,63.65
2022-10-19T01:51:49.786Z,63.71
2022-10-19T01:54:18.640Z,63.80
2022-10-19T01:56:48.330Z,63.83
2022-10-19T01:59:18.398Z,63.71
2022-10-19T02:01:47.312Z,63.44
2022-10-19T02:04:18.559Z,63.63
2022-10-19T02:06:44.969Z,64.10
2022-10-19T02:09:17.971Z,63.99
2022-10-19T02:11:49.630Z,64.16
2022-10-19T02:14:22.274Z,63.99
2022-10-19T02:16:59.211Z,64.23
2022-10-19T02:19:25.691Z,64.55
2022-10-19T02:21:52.429Z,64.08
2022-10-19T02:24:18.820Z,64.43
2022-10-19T02:26:45.902Z,64.25
2022-10-19T02:29:15.014Z,64.45
2022-10-19T02:31:41.691Z,64.76
2022-10-19T02:34:08.294Z,64.88
2022-10-19T02:36:34.840Z,65.10
2022-10-19T02:39:01.248Z,64.99
2022-10-19T02:41:33.723Z,65.19
2022-10-19T02:44:17.878Z,65.15
2022-10-19T02:46:48.251Z,65.40
2022-10-19T02:49:15.766Z,65.32
2022-10-19T02:52:04.336Z,65.32
2022-10-19T02:54:30.865Z,65.57
2022-10-19T02:56:57.415Z,65.61
2022-10-19T02:59:24.672Z,65.72
2022-10-19T03:01:51.394Z,65.64
2022-10-19T03:04:18.547Z,65.53
2022-10-19T03:06:44.924Z,65.68
2022-10-19T03:09:11.339Z,65.19
2022-10-19T03:11:37.880Z,65.30
2022-10-19T03:14:04.226Z,65.28
2022-10-19T03:16:30.551Z,65.03
2022-10-19T03:18:56.947Z,65.15
2022-10-19T03:21:23.330Z,65.08
2022-10-19T03:23:49.681Z,65.17
2022-10-19T03:26:17.846Z,65.26
2022-10-19T03:28:44.248Z,65.00
2022-10-19T03:31:10.684Z,65.06
2022-10-19T03:33:37.017Z,65.29
2022-10-19T03:36:23.303Z,64.93
2022-10-19T03:38:50.683Z,64.87
2022-10-19T03:41:17.135Z,64.67
2022-10-19T03:43:43.530Z,64.51
2022-10-19T03:46:09.859Z,64.66
2022-10-19T03:48:36.355Z,64.94
2022-10-19T03:51:09.273Z,64.43
2022-10-19T03:53:36.432Z,64.26
2022-10-19T03:56:05.433Z,64.15
2022-10-19T03:58:33.446Z,64.59
2022-10-19T04:01:00.512Z,64.42
2022-10-19T04:03:26.950Z,64.67
2022-10-19T04:06:02.585Z,64.60
2022-10-19T04:08:29.119Z,64.82
2022-10-19T04:11:08.535Z,64.57
2022-10-19T04:13:35.655Z,64.71
2022-10-19T04:16:02.293Z,64.71
2022-10-19T04:18:28.718Z,64.85
2022-10-19T04:21:00.280Z,65.06
2022-10-19T04:23:29.179Z,65.03
2022-10-19T04:26:03.070Z,64.97
2022-10-19T04:28:30.107Z,65.27
2022-10-19T04:30:56.536Z,65.40
2022-10-19T04:33:23.603Z,65.43
2022-10-19T04:35:49.948Z,65.32
2022-10-19T04:38:16.282Z,65.22
2022-10-19T04:40:42.812Z,65.59
2022-10-19T04:43:09.252Z,65.70
2022-10-19T04:45:35.921Z,65.45
2022-10-19T04:48:02.355Z,65.73
2022-10-19T04:50:28.806Z,65.82
2022-10-19T04:52:55.153Z,65.76
2022-10-19T04:55:21.798Z,65.80
2022-10-19T04:57:48.370Z,66.07
2022-10-19T05:00:15.192Z,65.88
2022-10-19T05:02:45.962Z,66.06
2022-10-19T05:05:13.364Z,65.76
2022-10-19T05:07:40.173Z,66.10
2022-10-19T05:10:08.391Z,65.69
2022-10-19T05:12:35.676Z,65.96
2022-10-19T05:15:02.323Z,65.89
2022-10-19T05:17:32.539Z,65.79
2022-10-19T05:19:59.174Z,66.15
2022-10-19T05:22:25.501Z,66.34
2022-10-19T05:24:54.547Z,65.98
2022-10-19T05:27:23.871Z,66.02
2022-10-19T05:29:50.219Z,66.15
2022-10-19T05:32:16.702Z,66.11
2022-10-19T05:34:43.207Z,65.78
2022-10-19T05:37:09.540Z,65.84
2022-10-19T05:39:35.922Z,65.66
2022-10-19T05:42:02.311Z,65.73
2022-10-19T05:44:28.765Z,65.55
2022-10-19T05:46:55.159Z,66.18
2022-10-19T05:49:22.343Z,66.57
2022-10-19T05:51:49.790Z,66.83
2022-10-19T05:54:17.146Z,66.99
2022-10-19T05:56:44.602Z,67.36
2022-10-19T05:59:15.053Z,67.29
2022-10-19T06:01:41.480Z,67.80
2022-10-19T06:04:07.937Z,67.90
2022-10-19T06:06:34.793Z,67.85
2022-10-19T06:09:01.198Z,68.04
2022-10-19T06:11:34.951Z,67.71
2022-10-19T06:14:04.091Z,67.71
2022-10-19T06:16:32.190Z,67.47
2022-10-19T06:18:59.680Z,67.14
2022-10-19T06:21:29.026Z,66.72
2022-10-19T06:23:57.807Z,66.55
2022-10-19T06:26:25.264Z,66.48
2022-10-19T06:28:54.358Z,66.11
2022-10-19T06:31:20.681Z,65.91
2022-10-19T06:33:49.388Z,65.70
2022-10-19T06:36:19.409Z,65.51
2022-10-19T06:38:46.364Z,65.62
2022-10-19T06:41:13.002Z,65.47
2022-10-19T06:43:39.420Z,65.74
2022-10-19T06:46:10.894Z,66.01
2022-10-19T06:48:37.429Z,66.36
2022-10-19T06:51:07.406Z,66.72
2022-10-19T06:53:35.612Z,66.88
2022-10-19T06:56:04.585Z,66.95
2022-10-19T06:58:31.097Z,67.15
2022-10-19T07:00:59.266Z,67.43
2022-10-19T07:03:27.267Z,67.40
2022-10-19T07:06:00.859Z,67.28
2022-10-19T07:08:29.647Z,67.53
2022-10-19T07:10:58.309Z,67.56
2022-10-19T07:13:25.942Z,67.55
2022-10-19T07:15:58.814Z,67.32
2022-10-19T07:18:26.483Z,67.57
2022-10-19T07:21:01.240Z,67.58
2022-10-19T07:23:29.310Z,67.83
2022-10-19T07:26:00.966Z,67.91
2022-10-19T07:28:29.286Z,67.77
2022-10-19T07:30:56.138Z,68.00
2022-10-19T07:33:22.603Z,67.98
2022-10-19T07:35:49.098Z,68.13
2022-10-19T07:38:15.487Z,68.14
2022-10-19T07:40:44.875Z,68.13
2022-10-19T07:43:13.715Z,67.81
2022-10-19T07:45:40.096Z,67.68
2022-10-19T07:48:06.593Z,67.70
2022-10-19T07:50:32.985Z,67.82
2022-10-19T07:52:59.353Z,67.31
2022-10-19T07:55:25.674Z,67.28
2022-10-19T07:57:52.132Z,67.32
2022-10-19T08:00:18.574Z,67.22
2022-10-19T08:02:59.649Z,67.26
2022-10-19T08:05:34.720Z,66.94
2022-10-19T08:08:01.175Z,66.84
2022-10-19T08:10:27.742Z,67.08
2022-10-19T08:12:54.108Z,67.17
2022-10-19T08:15:20.450Z,67.10
2022-10-19T08:17:47.003Z,66.87
2022-10-19T08:20:13.404Z,65.14
2022-10-19T08:22:46.761Z,64.58
2022-10-19T08:25:13.124Z,63.60
2022-10-19T08:27:39.468Z,63.82
2022-10-19T08:30:06.195Z,62.84
2022-10-19T08:32:33.006Z,62.32
2022-10-19T08:34:59.568Z,62.14
2022-10-19T08:37:43.816Z,61.88
2022-10-19T08:40:25.833Z,62.23
2022-10-19T08:43:01.707Z,62.33
2022-10-19T08:48:20.472Z,62.35
2022-10-19T08:50:48.320Z,61.66
2022-10-19T08:53:24.695Z,61.84
2022-10-19T08:55:54.413Z,61.48
2022-10-19T08:58:46.753Z,61.42
2022-10-19T09:01:21.365Z,61.93
2022-10-19T09:03:59.717Z,61.74
2022-10-19T09:06:45.429Z,61.19
2022-10-19T09:09:15.493Z,61.09
2022-10-19T09:11:47.170Z,60.96
2022-10-19T09:14:20.722Z,60.61
2022-10-19T09:16:47.206Z,60.16
2022-10-19T09:19:26.203Z,59.88
2022-10-19T09:22:00.314Z,59.95
2022-10-19T09:24:45.931Z,58.88
2022-10-19T09:27:33.319Z,59.53
2022-10-19T09:30:05.721Z,59.56
2022-10-19T09:32:37.907Z,59.64
2022-10-19T09:35:36.110Z,58.78
2022-10-19T09:38:05.862Z,58.09
2022-10-19T09:40:33.663Z,57.63
2022-10-19T09:43:08.566Z,57.19
2022-10-19T09:45:37.975Z,57.73
2022-10-19T09:48:16.565Z,57.48
2022-10-19T09:50:44.668Z,57.26
2022-10-19T09:53:20.189Z,57.53
2022-10-19T09:56:07.807Z,57.34
2022-10-19T09:58:47.279Z,56.71
2022-10-19T10:01:41.704Z,56.27
2022-10-19T10:04:17.832Z,56.28
2022-10-19T10:06:47.931Z,55.68
2022-10-19T10:09:17.437Z,55.67
2022-10-19T10:11:48.122Z,55.32
2022-10-19T10:14:21.558Z,54.91
2022-10-19T10:16:48.218Z,54.12
2022-10-19T10:19:17.001Z,54.63
2022-10-19T10:21:54.463Z,54.11
2022-10-19T10:24:25.902Z,53.23
2022-10-19T10:26:53.783Z,53.05
2022-10-19T10:29:25.163Z,53.63
2022-10-19T10:32:00.349Z,53.95
2022-10-19T10:34:50.185Z,53.67
2022-10-19T10:37:21.763Z,53.23
2022-10-19T10:39:52.810Z,53.09
2022-10-19T10:42:26.999Z,52.52
2022-10-19T10:44:56.236Z,52.55
2022-10-19T10:47:23.105Z,51.69
2022-10-19T10:50:02.890Z,51.53
2022-10-19T10:52:33.475Z,50.90
2022-10-19T10:55:10.875Z,51.01
2022-10-19T10:57:46.642Z,51.23
2022-10-19T11:00:21.547Z,51.06
2022-10-19T11:02:47.846Z,50.37
2022-10-19T11:05:20.342Z,50.81
2022-10-19T11:07:53.042Z,50.44
2022-10-19T11:10:35.228Z,50.25
2022-10-19T11:13:28.751Z,50.60
2022-10-19T11:16:11.180Z,50.38
2022-10-19T11:18:49.970Z,50.14
2022-10-19T11:21:42.482Z,50.35
2022-10-19T11:24:35.417Z,50.09
2022-10-19T11:27:15.561Z,49.89
2022-10-19T11:30:10.842Z,49.66
2022-10-19T11:33:01.611Z,49.05
2022-10-19T11:35:54.446Z,48.70
2022-10-19T11:38:35.075Z,47.58
2022-10-19T11:41:26.371Z,47.93
2022-10-19T11:44:14.519Z,47.58
2022-10-19T11:46:59.781Z,48.13
2022-10-19T11:49:38.383Z,48.29
2022-10-19T11:52:16.051Z,48.28
2022-10-19T11:55:06.418Z,48.33
2022-10-19T11:57:43.483Z,48.58
2022-10-19T12:00:21.178Z,47.60
2022-10-19T12:03:08.976Z,47.65
2022-10-19T12:05:56.096Z,48.05
2022-10-19T12:08:51.192Z,47.92
2022-10-19T12:11:51.539Z,47.87
2022-10-19T12:14:24.211Z,47.38
2022-10-19T12:16:55.279Z,47.31
2022-10-19T12:19:36.986Z,47.35
2022-10-19T12:22:06.915Z,48.34
2022-10-19T12:24:34.342Z,47.57
2022-10-19T12:27:01.907Z,47.57
2022-10-19T12:29:37.462Z,47.86
2022-10-19T12:32:05.881Z,47.85
2022-10-19T12:34:52.521Z,48.38
2022-10-19T12:37:25.058Z,47.99
2022-10-19T12:40:38.203Z,48.50
2022-10-19T12:43:17.143Z,48.65
2022-10-19T12:45:51.618Z,47.95
2022-10-19T12:48:20.649Z,47.86
2022-10-19T12:50:50.117Z,47.52
2022-10-19T12:56:05.367Z,47.61
2022-10-19T12:58:47.682Z,47.39
2022-10-19T13:01:26.761Z,47.72
2022-10-19T13:04:07.534Z,47.36
2022-10-19T13:06:36.787Z,47.18
2022-10-19T13:09:06.522Z,47.19
2022-10-19T13:14:10.888Z,47.01
2022-10-19T13:16:37.266Z,46.69
2022-10-19T13:19:12.966Z,46.76
2022-10-19T13:22:01.395Z,46.61
2022-10-19T13:24:34.752Z,46.74
2022-10-19T13:27:04.104Z,46.21
2022-10-19T13:29:39.728Z,46.61
2022-10-19T13:32:40.445Z,46.63
2022-10-19T13:35:32.718Z,46.80
2022-10-19T13:38:17.520Z,46.91
2022-10-19T13:40:49.742Z,46.36
2022-10-19T13:43:28.982Z,46.42
2022-10-19T13:46:03.449Z,45.95
2022-10-19T13:48:37.339Z,46.17
2022-10-19T13:51:20.062Z,46.57
2022-10-19T13:54:20.548Z,46.56
2022-10-19T13:57:16.282Z,46.46
2022-10-19T14:00:13.621Z,46.24
2022-10-19T14:03:13.232Z,45.96
2022-10-19T14:05:53.592Z,45.83
2022-10-19T14:08:41.451Z,46.09
2022-10-19T14:11:17.853Z,45.66
2022-10-19T14:13:44.547Z,45.89
2022-10-19T14:16:21.768Z,46.27
2022-10-19T14:18:55.909Z,46.51
2022-10-19T14:21:41.172Z,46.35
2022-10-19T14:24:38.834Z,46.56
2022-10-19T14:27:07.653Z,46.40
2022-10-19T14:29:44.315Z,46.98
2022-10-19T14:32:12.116Z,46.80
2022-10-19T14:34:43.579Z,46.87
2022-10-19T14:37:22.160Z,47.27
2022-10-19T14:39:59.808Z,46.92
2022-10-19T14:42:39.703Z,46.94
2022-10-19T14:45:12.149Z,46.87
2022-10-19T14:47:51.310Z,47.07
2022-10-19T14:50:18.595Z,46.95
2022-10-19T14:52:45.690Z,46.96
2022-10-19T14:55:17.985Z,47.47
2022-10-19T14:57:47.540Z,47.35
2022-10-19T15:00:22.645Z,47.64
2022-10-19T15:03:09.533Z,47.72
2022-10-19T15:05:51.521Z,47.71
2022-10-19T15:08:27.827Z,48.05
2022-10-19T15:10:54.223Z,47.66
2022-10-19T15:13:28.498Z,47.93
2022-10-19T15:15:55.745Z,47.51
2022-10-19T15:18:47.805Z,47.84
2022-10-19T15:21:17.753Z,47.76
2022-10-19T15:23:51.873Z,48.09
2022-10-19T15:26:18.224Z,48.21
2022-10-19T15:28:45.116Z,48.44
2022-10-19T15:31:30.077Z,48.37
2022-10-19T15:34:01.911Z,48.61
2022-10-19T15:36:30.340Z,48.45
2022-10-19T15:39:18.482Z,48.87
2022-10-19T15:41:51.398Z,48.81
2022-10-19T15:44:53.392Z,49.11
2022-10-19T15:47:23.172Z,48.90
2022-10-19T15:49:55.763Z,48.96
2022-10-19T15:52:23.964Z,49.14
2022-10-19T15:54:52.657Z,49.05
2022-10-19T15:57:32.790Z,49.28
2022-10-19T16:00:06.704Z,49.18
2022-10-19T16:02:33.014Z,49.10
2022-10-19T16:04:59.402Z,49.62
2022-10-19T16:07:29.122Z,49.70
2022-10-19T16:09:55.911Z,49.60
2022-10-19T16:12:23.279Z,49.91
2022-10-19T16:14:49.669Z,49.83
2022-10-19T16:17:16.312Z,49.80
2022-10-19T16:19:44.017Z,50.21
2022-10-19T16:22:11.662Z,50.47
2022-10-19T16:24:38.147Z,50.53
2022-10-19T16:27:05.602Z,50.68
2022-10-19T16:29:32.080Z,50.88
2022-10-19T16:31:58.987Z,51.17
2022-10-19T16:34:25.385Z,51.33
2022-10-19T16:36:51.887Z,51.32
2022-10-19T16:39:18.593Z,51.48
2022-10-19T16:41:44.983Z,52.00
2022-10-19T16:44:12.562Z,51.87
2022-10-19T16:46:39.276Z,52.35
2022-10-19T16:49:05.691Z,52.21
2022-10-19T16:51:41.834Z,52.28
2022-10-19T16:54:10.720Z,52.59
2022-10-19T16:56:47.774Z,52.77
2022-10-19T16:59:16.686Z,52.83
2022-10-19T17:01:44.414Z,52.83
2022-10-19T17:04:12.103Z,53.29
2022-10-19T17:06:38.698Z,53.09
2022-10-19T17:11:51.953Z,53.60
2022-10-19T17:14:18.380Z,53.73
2022-10-19T17:16:45.714Z,53.90
2022-10-19T17:19:12.097Z,53.83
2022-10-19T17:21:39.404Z,54.22
2022-10-19T17:24:08.759Z,54.27
2022-10-19T17:26:38.010Z,54.27
2022-10-19T17:29:06.074Z,54.43
2022-10-19T17:31:32.854Z,54.45
2022-10-19T17:34:00.616Z,54.68
2022-10-19T17:36:29.356Z,54.66
2022-10-19T17:38:58.489Z,54.71
2022-10-19T17:41:26.526Z,55.10
2022-10-19T17:43:53.488Z,54.95
2022-10-19T17:46:26.023Z,54.92
2022-10-19T17:48:52.355Z,55.19
2022-10-19T17:51:21.502Z,55.30
2022-10-19T17:53:50.468Z,55.33
2022-10-19T17:56:19.699Z,55.39
2022-10-19T17:58:47.069Z,55.55
2022-10-19T18:01:14.863Z,55.58
2022-10-19T18:03:41.706Z,55.65
2022-10-19T18:06:14.626Z,55.70
2022-10-19T18:08:43.616Z,55.61
2022-10-19T18:11:11.911Z,55.92
2022-10-19T18:13:39.593Z,55.93
2022-10-19T18:16:12.054Z,56.13
2022-10-19T18:18:40.666Z,56.23
2022-10-19T18:21:11.402Z,56.31
2022-10-19T18:23:37.979Z,56.53
2022-10-19T18:26:07.445Z,56.54
2022-10-19T18:28:34.041Z,56.67
2022-10-19T18:31:11.678Z,56.61
2022-10-19T18:33:38.827Z,57.06
2022-10-19T18:36:06.657Z,56.80
2022-10-19T18:38:33.306Z,57.06
2022-10-19T18:41:03.711Z,56.84
2022-10-19T18:43:30.429Z,57.04
2022-10-19T18:45:58.660Z,57.17
2022-10-19T18:48:27.323Z,57.05
2022-10-19T18:50:53.903Z,57.00
2022-10-19T18:53:20.961Z,57.41
2022-10-19T18:55:59.957Z,57.02
2022-10-19T18:58:27.074Z,57.26
2022-10-19T19:01:02.668Z,57.13
2022-10-19T19:03:29.014Z,57.33
2022-10-19T19:05:59.278Z,57.09
2022-10-19T19:08:25.827Z,57.38
2022-10-19T19:10:52.260Z,57.53
2022-10-19T19:13:18.610Z,57.36
2022-10-19T19:15:44.995Z,57.38
2022-10-19T19:18:11.422Z,57.40
2022-10-19T19:20:40.335Z,57.57
2022-10-19T19:23:06.879Z,57.57
2022-10-19T19:25:33.225Z,57.44
2022-10-19T19:27:59.659Z,57.63
2022-10-19T19:30:27.771Z,57.26
2022-10-19T19:32:54.130Z,57.50
2022-10-19T19:35:20.469Z,57.55
2022-10-19T19:37:46.801Z,57.50
2022-10-19T19:40:13.156Z,57.60
2022-10-19T19:42:39.595Z,57.57
2022-10-19T19:45:06.413Z,57.57
2022-10-19T19:47:33.007Z,57.67
2022-10-19T19:49:59.680Z,57.37
2022-10-19T19:52:26.023Z,57.55
2022-10-19T19:54:52.423Z,57.63
2022-10-19T19:57:18.862Z,58.01
2022-10-19T19:59:45.239Z,57.65
2022-10-19T20:02:11.661Z,57.79
2022-10-19T20:04:38.051Z,57.84
2022-10-19T20:07:05.012Z,57.89
2022-10-19T20:09:31.434Z,57.83
2022-10-19T20:11:57.836Z,57.84
2022-10-19T20:14:24.318Z,57.81
2022-10-19T20:16:50.708Z,57.74
2022-10-19T20:19:17.072Z,57.64
2022-10-19T20:21:43.438Z,57.91
2022-10-19T20:24:10.461Z,57.95
2022-10-19T20:26:37.405Z,58.00
2022-10-19T20:29:04.927Z,58.05
2022-10-19T20:31:33.337Z,58.24
2022-10-19T20:33:59.813Z,58.12
2022-10-19T20:36:26.556Z,58.07
2022-10-19T20:38:58.182Z,57.95
2022-10-19T20:41:26.903Z,58.13
2022-10-19T20:43:54.176Z,58.18
2022-10-19T20:46:29.137Z,57.97
2022-10-19T20:48:57.986Z,58.11
2022-10-19T20:51:30.996Z,58.04
2022-10-19T20:53:59.955Z,58.17
2022-10-19T20:56:29.473Z,58.20
2022-10-19T20:59:00.532Z,58.34
2022-10-19T21:01:29.010Z,58.25
2022-10-19T21:03:59.030Z,58.23
2022-10-19T21:06:27.138Z,58.29
2022-10-19T21:08:53.596Z,58.46
2022-10-19T21:11:24.213Z,58.31
2022-10-19T21:13:56.257Z,58.30
2022-10-19T21:16:27.386Z,58.37
2022-10-19T21:18:54.407Z,58.33
2022-10-19T21:21:27.278Z,58.28
2022-10-19T21:23:59.386Z,58.27
2022-10-19T21:26:29.278Z,58.58
2022-10-19T21:28:56.122Z,58.53
2022-10-19T21:31:23.871Z,58.35
2022-10-19T21:33:51.649Z,58.37
2022-10-19T21:36:19.300Z,58.43
2022-10-19T21:38:45.631Z,58.78
2022-10-19T21:41:26.169Z,58.65
2022-10-19T21:43:53.377Z,58.61
2022-10-19T21:46:21.655Z,58.63
2022-10-19T21:48:48.921Z,58.80
2022-10-19T21:51:37.354Z,58.59
2022-10-19T21:54:06.104Z,58.86
2022-10-19T21:56:33.909Z,58.62
2022-10-19T21:59:00.496Z,58.84
2022-10-19T22:01:29.471Z,58.79
2022-10-19T22:03:57.746Z,58.69
2022-10-19T22:06:25.386Z,58.94
2022-10-19T22:08:52.020Z,58.75
2022-10-19T22:11:18.510Z,58.70
2022-10-19T22:13:44.880Z,58.90
2022-10-19T22:16:14.411Z,58.79
2022-10-19T22:18:41.171Z,58.83
2022-10-19T22:21:10.633Z,58.91
2022-10-19T22:23:37.607Z,58.87
2022-10-19T22:26:14.875Z,58.80
2022-10-19T22:28:41.553Z,58.73
2022-10-19T22:31:08.511Z,58.90
2022-10-19T22:33:35.516Z,58.74
2022-10-19T22:36:04.376Z,58.96
2022-10-19T22:38:30.735Z,59.03
2022-10-19T22:40:57.129Z,58.84
2022-10-19T22:43:23.535Z,58.94
2022-10-19T22:45:50.276Z,58.74
2022-10-19T22:48:17.812Z,58.73
2022-10-19T22:50:44.705Z,58.89
2022-10-19T22:53:11.727Z,58.89
2022-10-19T22:55:38.132Z,58.91
2022-10-19T22:58:05.810Z,58.69
2022-10-19T23:00:32.419Z,58.95
2022-10-19T23:02:58.898Z,58.97
2022-10-19T23:05:25.244Z,59.16
2022-10-19T23:07:51.591Z,59.11
2022-10-19T23:10:18.134Z,59.05
2022-10-19T23:12:48.839Z,59.05
2022-10-19T23:15:15.216Z,59.22
2022-10-19T23:17:41.551Z,59.27
2022-10-19T23:20:08.416Z,59.14
2022-10-19T23:22:34.751Z,59.20
2022-10-19T23:25:01.093Z,59.32
2022-10-19T23:27:27.462Z,59.26
2022-10-19T23:29:53.817Z,59.26
2022-10-19T23:32:20.395Z,59.20
2022-10-19T23:34:48.420Z,59.17
2022-10-19T23:37:15.031Z,59.17
2022-10-19T23:39:41.599Z,58.98
2022-10-19T23:42:07.939Z,59.18
2022-10-19T23:44:34.320Z,59.28
2022-10-19T23:47:00.653Z,59.54
2022-10-19T23:49:27.049Z,59.52
2022-10-19T23:51:53.590Z,59.40
2022-10-19T23:54:19.901Z,59.72
2022-10-19T23:56:46.254Z,59.49
2022-10-19T23:59:12.608Z,59.53
